Time;durP1;ratioP1;P1;durP2;ratioP2;P2;SDS_P1;SDS_P2;PMS_P1;PMS_P2;Temp;Humidity;BMP_temperature;BMP_pressure;BME280_temperature;BME280_humidity;BME280_pressure;Samples;Min_cycle;Max_cycle;Signal;HPM_P1;HPM_P2
2021/10/27 03:34:37;;;;;;;11.40;8.87;;;;;;;10.76;61.51;99760.28;6860256;28;20659;-81
2021/10/27 03:37:58;;;;;;;13.03;9.83;;;;;;;10.63;61.27;99754.69;6865053;28;20783;-82
2021/10/27 03:41:20;;;;;;;10.87;8.53;;;;;;;10.32;61.36;99757.47;6864628;28;20233;-80
2021/10/27 03:44:42;;;;;;;10.57;9.47;;;;;;;10.18;62.87;99765.50;6865206;28;20216;-81
2021/10/27 03:48:03;;;;;;;9.80;8.80;;;;;;;9.92;62.22;99735.34;6864730;28;20229;-81
2021/10/27 03:51:26;;;;;;;11.40;9.47;;;;;;;10.25;62.62;99763.75;6864522;28;20256;-81
2021/10/27 03:54:48;;;;;;;11.13;9.43;;;;;;;10.31;62.12;99761.19;6864334;28;20299;-82
2021/10/27 03:58:10;;;;;;;10.43;9.33;;;;;;;10.06;62.10;99767.78;6864687;28;20216;-82
2021/10/27 04:01:31;;;;;;;12.20;9.30;;;;;;;10.15;62.55;99763.19;6863748;28;20225;-83
2021/10/27 04:04:53;;;;;;;12.40;11.10;;;;;;;10.09;61.93;99755.81;6890419;28;20221;-81
2021/10/27 04:08:16;;;;;;;11.57;10.13;;;;;;;10.19;62.38;99767.16;6889955;28;20800;-81
2021/10/27 04:11:37;;;;;;;10.90;9.80;;;;;;;9.90;62.16;99770.53;6870163;28;20235;-81
2021/10/27 04:14:59;;;;;;;11.93;10.63;;;;;;;9.95;62.71;99770.84;6885060;28;20206;-81
2021/10/27 04:18:21;;;;;;;13.17;10.33;;;;;;;10.00;62.09;99767.59;6872279;28;20207;-82
2021/10/27 04:21:42;;;;;;;11.03;9.60;;;;;;;10.22;61.84;99785.69;6873004;28;20230;-81
2021/10/27 04:25:07;;;;;;;13.77;10.80;;;;;;;10.15;61.76;99771.25;6889228;28;20255;-81
2021/10/27 04:28:28;;;;;;;12.40;9.93;;;;;;;9.96;62.21;99783.28;6889180;28;20711;-81
2021/10/27 04:31:50;;;;;;;12.17;9.77;;;;;;;10.10;61.92;99779.84;6888112;28;20257;-82
2021/10/27 04:35:11;;;;;;;10.83;9.23;;;;;;;9.90;61.78;99767.00;6893893;28;20193;-82
2021/10/27 04:38:33;;;;;;;10.37;9.00;;;;;;;10.25;60.78;99796.09;6894748;28;20215;-82
2021/10/27 04:41:56;;;;;;;10.20;9.20;;;;;;;10.34;60.54;99779.69;6895643;28;20236;-80
2021/10/27 04:45:19;;;;;;;11.80;9.73;;;;;;;9.93;60.69;99762.09;6880665;28;20212;-81
2021/10/27 04:48:41;;;;;;;10.07;9.07;;;;;;;9.83;60.87;99782.19;6881957;28;20226;-81
2021/10/27 04:52:03;;;;;;;10.40;9.40;;;;;;;9.76;61.92;99779.38;6875862;28;20231;-81
2021/10/27 04:55:24;;;;;;;9.63;8.33;;;;;;;9.99;61.08;99776.72;6876502;28;20212;-81
2021/10/27 04:58:47;;;;;;;12.23;9.20;;;;;;;10.12;61.11;99775.16;6888052;28;20205;-81
2021/10/27 05:02:10;;;;;;;12.07;10.73;;;;;;;10.08;61.17;99781.91;6869905;28;20371;-80
2021/10/27 05:05:34;;;;;;;15.13;13.53;;;;;;;9.99;60.72;99757.84;6883010;28;20202;-81
2021/10/27 05:08:56;;;;;;;11.27;10.07;;;;;;;10.25;60.76;99777.22;6897975;28;20223;-81
2021/10/27 05:12:17;;;;;;;13.00;10.37;;;;;;;10.30;60.81;99778.38;6897920;28;20222;-81
2021/10/27 05:15:40;;;;;;;11.20;10.00;;;;;;;10.52;61.24;99779.38;6897709;28;20207;-81
2021/10/27 05:19:02;;;;;;;12.23;10.23;;;;;;;10.73;61.66;99772.28;6897183;28;20201;-82
2021/10/27 05:22:23;;;;;;;13.83;11.40;;;;;;;10.41;62.55;99771.72;6891424;28;20599;-80
2021/10/27 05:25:45;;;;;;;12.30;11.00;;;;;;;10.39;63.57;99771.91;6878316;28;20209;-80
2021/10/27 05:29:07;;;;;;;11.73;10.53;;;;;;;10.46;62.45;99761.25;6885816;28;20229;-80
2021/10/27 05:32:30;;;;;;;13.93;11.10;;;;;;;10.68;62.06;99766.59;6896989;28;20242;-80
2021/10/27 05:35:51;;;;;;;12.63;10.87;;;;;;;10.84;61.30;99774.53;6897134;28;20211;-80
2021/10/27 05:39:13;;;;;;;14.30;11.37;;;;;;;10.75;61.00;99785.59;6878628;28;20220;-80
2021/10/27 05:42:35;;;;;;;15.83;11.90;;;;;;;10.35;61.30;99767.06;6869794;28;20600;-80
2021/10/27 05:45:57;;;;;;;11.43;10.30;;;;;;;10.69;61.52;99779.06;6869858;28;20216;-80
2021/10/27 05:49:25;;;;;;;12.40;9.93;;;;;;;10.90;61.08;99771.13;6885736;28;20216;-80
2021/10/27 05:56:25;;;;;;;14.60;11.30;;;;;;;10.31;63.23;99781.91;6870140;28;20193;-80
2021/10/27 05:59:51;;;;;;;14.40;11.60;;;;;;;10.05;63.82;99749.91;6870292;28;20244;-79
2021/10/27 06:03:12;;;;;;;12.93;11.27;;;;;;;10.67;62.94;99788.34;6886621;28;20213;-80
2021/10/27 06:06:35;;;;;;;13.13;11.00;;;;;;;10.70;62.73;99788.00;6873466;28;20212;-80
2021/10/27 06:09:57;;;;;;;12.77;10.93;;;;;;;10.52;62.68;99790.19;6869417;28;20235;-80
2021/10/27 06:13:18;;;;;;;13.37;10.77;;;;;;;10.66;62.71;99790.22;6868299;28;20280;-80
2021/10/27 06:16:40;;;;;;;13.67;11.80;;;;;;;10.91;62.15;99782.72;6868591;28;20670;-80
2021/10/27 06:20:02;;;;;;;14.07;10.67;;;;;;;10.96;62.13;99786.56;6868757;28;20214;-80
2021/10/27 06:23:25;;;;;;;12.23;10.93;;;;;;;10.96;62.25;99786.56;6867886;28;20274;-80
2021/10/27 06:26:48;;;;;;;12.67;11.30;;;;;;;10.16;63.77;99759.47;6868108;28;20215;-80
2021/10/27 06:30:13;;;;;;;12.60;11.27;;;;;;;10.24;64.30;99806.06;6867947;28;20243;-80
2021/10/27 06:33:52;;;;;;;12.23;10.70;;;;;;;10.59;63.91;99807.31;6888730;28;20223;-80
2021/10/27 06:37:29;;;;;;;11.53;10.33;;;;;;;10.57;63.70;99814.75;6892790;28;20214;-80
2021/10/27 06:48:07;;;;;;;13.50;10.63;;;;;;;10.87;63.05;99811.94;6893738;28;20228;-81
2021/10/27 06:51:29;;;;;;;14.20;9.90;;;;;;;10.84;63.50;99822.25;6891085;28;20221;-82
2021/10/27 06:54:52;;;;;;;12.97;11.43;;;;;;;11.13;62.67;99830.41;6880132;28;20202;-82
2021/10/27 06:58:19;;;;;;;11.23;9.70;;;;;;;10.93;63.00;99819.31;6865356;28;21228;-81
2021/10/27 07:05:42;;;;;;;8.77;7.57;;;;;;;11.83;60.86;99826.28;6892470;28;20192;-82
2021/10/27 07:16:23;;;;;;;10.80;8.33;;;;;;;13.09;58.87;99832.66;6878713;28;20589;-86
2021/10/27 07:19:45;;;;;;;8.60;7.70;;;;;;;13.44;57.94;99831.66;6866463;28;20212;-82
2021/10/27 07:23:09;;;;;;;9.23;8.33;;;;;;;14.08;56.99;99830.34;6865210;28;20236;-82
2021/10/27 07:26:32;;;;;;;9.70;8.10;;;;;;;14.37;55.64;99823.78;6866572;28;20230;-82
2021/10/27 07:29:53;;;;;;;9.20;7.80;;;;;;;14.58;55.19;99827.16;6865385;28;20230;-81
2021/10/27 07:33:16;;;;;;;9.10;8.30;;;;;;;14.91;53.52;99824.50;6864538;28;20240;-81
2021/10/27 07:39:52;;;;;;;8.53;7.13;;;;;;;14.99;53.56;99830.56;6873508;28;20234;-82
2021/10/27 07:40:34;;;;;;;7.53;6.83;;;;;;;15.40;52.37;99823.06;6864394;28;20213;-81
2021/10/27 07:43:57;;;;;;;7.70;6.57;;;;;;;15.65;51.08;99831.38;6871169;28;20563;-81
2021/10/27 07:47:19;;;;;;;8.10;7.30;;;;;;;15.79;50.56;99844.72;6877419;28;20205;-82
2021/10/27 07:50:43;;;;;;;7.53;6.73;;;;;;;16.14;50.01;99831.63;6870287;28;20260;-81
2021/10/27 07:54:05;;;;;;;7.63;6.90;;;;;;;16.48;49.05;99817.69;6879649;28;20667;-81
2021/10/27 07:57:27;;;;;;;8.27;6.57;;;;;;;16.26;48.33;99787.22;6876338;28;20197;-81
2021/10/27 08:00:50;;;;;;;7.70;6.70;;;;;;;17.00;49.20;99837.25;6870401;28;20353;-81
2021/10/27 08:04:11;;;;;;;9.57;7.43;;;;;;;16.86;47.95;99845.72;6875659;28;20576;-81
2021/10/27 08:07:41;;;;;;;8.20;6.83;;;;;;;17.74;46.99;99837.22;6893090;28;20666;-81
2021/10/27 08:11:03;;;;;;;7.17;6.47;;;;;;;19.18;44.05;99836.97;6891807;28;20691;-81
2021/10/27 08:14:25;;;;;;;7.60;5.57;;;;;;;19.84;40.98;99829.28;6886978;28;20218;-82
2021/10/27 08:17:47;;;;;;;6.50;5.77;;;;;;;19.91;41.31;99833.56;6884231;28;20202;-82
2021/10/27 08:21:09;;;;;;;6.63;5.93;;;;;;;19.92;40.42;99812.50;6881520;28;20223;-82
2021/10/27 08:24:32;;;;;;;6.63;5.90;;;;;;;20.60;39.62;99825.19;6882196;28;20227;-82
2021/10/27 08:27:55;;;;;;;6.23;5.63;;;;;;;20.97;38.81;99842.06;6897383;28;20215;-81
2021/10/27 08:31:26;;;;;;;6.30;5.40;;;;;;;20.56;39.46;99834.97;6897002;28;20298;-81
2021/10/27 08:34:48;;;;;;;6.57;5.27;;;;;;;21.28;38.90;99837.72;6896870;28;20195;-81
2021/10/27 08:38:10;;;;;;;7.20;5.23;;;;;;;21.18;39.17;99840.28;6896567;28;20224;-81
2021/10/27 08:41:33;;;;;;;6.10;5.60;;;;;;;21.49;38.59;99814.97;6896979;28;20224;-82
2021/10/27 08:44:55;;;;;;;6.20;5.17;;;;;;;22.37;36.88;99823.94;6896939;28;20687;-82
2021/10/27 08:48:17;;;;;;;5.70;5.20;;;;;;;22.38;37.02;99816.53;6896358;28;20212;-82
2021/10/27 08:51:39;;;;;;;7.13;5.37;;;;;;;21.43;39.06;99834.38;6896535;28;20231;-82
2021/10/27 08:55:00;;;;;;;7.37;5.70;;;;;;;20.11;41.93;99803.09;6895957;28;20222;-82
2021/10/27 08:58:27;;;;;;;6.87;5.87;;;;;;;18.88;43.95;99781.53;6895400;28;20206;-82
2021/10/27 09:01:56;;;;;;;7.73;6.27;;;;;;;18.54;46.88;99825.97;6895182;28;20803;-82
2021/10/27 09:05:33;;;;;;;7.03;6.33;;;;;;;18.67;46.92;99817.56;6894787;28;20214;-82
2021/10/27 09:16:28;;;;;;;6.57;5.90;;;;;;;19.00;46.63;99791.44;6896639;28;20187;-81
2021/10/27 09:34:59;;;;;;;7.27;5.63;;;;;;;19.66;46.50;99793.84;6894000;28;20185;-82
2021/10/27 09:38:41;;;;;;;5.97;5.20;;;;;;;20.06;44.62;99790.13;6892446;28;20557;-82
2021/10/27 10:04:55;;;;;;;5.87;4.97;;;;;;;20.38;44.06;99766.66;6872923;28;20192;-82
2021/10/27 10:08:17;;;;;;;9.00;4.70;;;;;;;19.95;45.62;99755.38;6866705;28;20212;-83
2021/10/27 10:11:39;;;;;;;7.33;4.67;;;;;;;20.83;43.58;99751.88;6866993;28;20233;-82
2021/10/27 10:15:01;;;;;;;4.27;3.67;;;;;;;20.64;43.52;99755.09;6867697;28;20211;-82
2021/10/27 10:18:23;;;;;;;4.10;3.70;;;;;;;20.67;43.88;99751.03;6883004;28;20208;-82
2021/10/27 10:21:48;;;;;;;2.93;2.57;;;;;;;20.90;42.34;99740.78;6878638;28;20228;-82
2021/10/27 10:25:27;;;;;;;2.40;2.20;;;;;;;21.05;40.44;99718.28;6891215;28;20204;-82
2021/10/27 10:28:48;;;;;;;2.93;2.40;;;;;;;21.05;40.77;99743.75;6891554;28;20228;-82
2021/10/27 10:32:32;;;;;;;3.17;2.10;;;;;;;20.93;40.98;99736.72;6892589;28;20247;-82
2021/10/27 10:36:00;;;;;;;4.37;2.70;;;;;;;21.51;40.45;99732.41;6893037;28;20212;-83
2021/10/27 10:39:43;;;;;;;3.20;2.27;;;;;;;21.38;40.09;99727.28;6893016;28;20564;-82
2021/10/27 10:43:12;;;;;;;3.03;2.70;;;;;;;21.56;39.87;99710.53;6891979;28;20759;-82
2021/10/27 10:58:06;;;;;;;4.10;2.50;;;;;;;21.93;39.44;99712.41;6884653;28;20204;-82
2021/10/27 11:01:46;;;;;;;3.90;2.20;;;;;;;22.15;38.44;99710.50;6873773;28;20228;-83
2021/10/27 11:23:43;;;;;;;3.03;1.80;;;;;;;22.07;36.29;99672.47;6864154;28;20221;-80
2021/10/27 11:27:20;;;;;;;2.00;1.80;;;;;;;22.48;35.14;99682.81;6867813;28;20195;-80
2021/10/27 11:38:21;;;;;;;2.63;1.83;;;;;;;22.98;35.02;99655.75;6865022;28;20206;-81
2021/10/27 11:41:48;;;;;;;3.47;2.00;;;;;;;22.29;36.15;99625.72;6881650;28;20221;-81
2021/10/27 11:45:24;;;;;;;1.77;1.63;;;;;;;22.85;35.23;99636.97;6896576;28;20246;-81
2021/10/27 11:48:56;;;;;;;3.83;2.20;;;;;;;22.88;34.93;99639.16;6895703;28;20209;-81
2021/10/27 11:52:19;;;;;;;2.90;2.17;;;;;;;22.20;36.18;99632.78;6896676;28;20601;-81
2021/10/27 11:55:41;;;;;;;3.20;2.03;;;;;;;21.90;36.73;99586.59;6895463;28;20217;-81
2021/10/27 11:59:03;;;;;;;2.50;2.00;;;;;;;22.01;36.74;99626.81;6896603;28;20224;-81
2021/10/27 12:02:26;;;;;;;2.17;1.93;;;;;;;22.73;35.68;99627.25;6895739;28;20230;-81
2021/10/27 12:05:52;;;;;;;3.33;2.10;;;;;;;21.59;37.96;99616.72;6896973;28;20291;-81
2021/10/27 12:13:02;;;;;;;4.27;2.10;;;;;;;21.86;38.79;99601.97;6893675;28;20230;-81
2021/10/27 12:16:45;;;;;;;2.23;1.90;;;;;;;20.59;40.69;99578.78;6896898;28;20232;-81
2021/10/27 12:20:07;;;;;;;4.00;2.33;;;;;;;20.16;42.08;99608.78;6890533;28;20204;-81
2021/10/27 12:23:29;;;;;;;4.87;2.57;;;;;;;20.06;42.39;99606.69;6882997;28;20232;-81
2021/10/27 12:27:00;;;;;;;2.60;2.20;;;;;;;20.31;41.26;99556.97;6871210;28;20209;-81
2021/10/27 12:30:22;;;;;;;3.23;2.00;;;;;;;20.93;40.38;99591.41;6881467;28;20224;-79
2021/10/27 12:33:47;;;;;;;2.73;2.10;;;;;;;20.91;39.95;99558.75;6868788;28;20221;-81
2021/10/27 12:37:32;;;;;;;2.80;2.50;;;;;;;21.51;39.60;99563.09;6876241;28;20197;-80
2021/10/27 12:41:00;;;;;;;3.03;2.30;;;;;;;21.24;39.53;99575.94;6896294;28;20231;-80
2021/10/27 12:44:26;;;;;;;3.50;2.07;;;;;;;21.24;39.19;99567.69;6896310;28;20756;-81
2021/10/27 12:47:47;;;;;;;2.10;1.90;;;;;;;20.76;40.05;99571.38;6898479;28;20565;-81
2021/10/27 12:51:10;;;;;;;3.43;2.00;;;;;;;21.08;39.68;99576.00;6897610;28;20233;-80
2021/10/27 12:54:32;;;;;;;2.97;2.20;;;;;;;20.96;39.26;99563.47;6897263;28;20250;-81
2021/10/27 12:58:01;;;;;;;3.47;2.63;;;;;;;20.41;39.24;99557.16;6896632;28;20695;-79
2021/10/27 13:01:31;;;;;;;3.20;2.13;;;;;;;21.60;38.15;99539.59;6896185;28;20227;-78
2021/10/27 13:04:57;;;;;;;2.87;2.13;;;;;;;21.80;36.46;99537.09;6895674;28;20189;-83
2021/10/27 13:08:36;;;;;;;2.77;2.20;;;;;;;20.54;39.35;99545.84;6874664;28;20291;-79
2021/10/27 13:15:52;;;;;;;4.40;2.13;;;;;;;21.85;37.00;99544.53;6880113;28;20260;-78
2021/10/27 13:19:24;;;;;;;2.27;2.00;;;;;;;21.33;38.03;99538.75;6891969;28;20211;-79
2021/10/27 13:30:14;;;;;;;5.00;2.40;;;;;;;21.53;37.63;99530.72;6901848;28;20224;-79
2021/10/27 13:33:36;;;;;;;2.33;2.13;;;;;;;21.46;37.56;99529.28;6910819;28;20215;-79
2021/10/27 13:37:00;;;;;;;3.23;2.40;;;;;;;21.44;37.80;99529.56;6864073;28;20217;-79
2021/10/27 13:40:24;;;;;;;5.20;2.40;;;;;;;21.62;37.65;99531.09;6864453;28;20216;-80
2021/10/27 13:43:51;;;;;;;2.40;2.20;;;;;;;21.03;38.34;99526.56;6878855;28;20291;-80
2021/10/27 13:47:23;;;;;;;3.30;2.13;;;;;;;21.77;37.66;99525.81;6864447;28;20744;-80
2021/10/27 13:58:29;;;;;;;3.37;2.70;;;;;;;21.23;37.47;99504.84;6864259;28;20190;-80
2021/10/27 14:09:14;;;;;;;6.20;3.03;;;;;;;21.13;38.21;99517.63;6866006;28;20674;-79
2021/10/27 14:12:50;;;;;;;4.80;3.50;;;;;;;21.44;37.28;99504.84;6889544;28;20234;-80
2021/10/27 14:16:32;;;;;;;4.63;2.87;;;;;;;21.25;38.19;99508.19;6890807;28;20239;-79
2021/10/27 15:22:12;;;;;;;2.87;2.20;;;;;;;21.36;40.71;99442.19;6881329;28;20224;-80
2021/10/27 15:25:50;;;;;;;2.63;2.27;;;;;;;20.85;41.95;99463.78;6885617;28;20251;-79
2021/10/27 15:29:29;;;;;;;2.70;2.03;;;;;;;20.76;42.03;99454.34;6888836;28;20208;-79
2021/10/27 15:33:04;;;;;;;2.77;2.17;;;;;;;20.67;42.68;99444.91;6887343;28;20243;-79
2021/10/27 15:36:39;;;;;;;5.33;2.50;;;;;;;20.59;42.94;99445.38;6874235;28;20212;-80
2021/10/27 15:51:16;;;;;;;5.97;3.40;;;;;;;19.33;46.77;99436.19;6830986;29;20261;-79
2021/10/27 15:54:37;;;;;;;4.40;3.47;;;;;;;18.49;49.05;99435.28;6839333;28;20310;-79
2021/10/27 15:57:59;;;;;;;5.77;3.43;;;;;;;18.89;48.57;99441.59;6887965;28;20200;-79
2021/10/27 16:01:22;;;;;;;8.07;3.70;;;;;;;18.82;48.60;99446.38;6906520;28;20220;-80
2021/10/27 16:04:44;;;;;;;4.63;3.50;;;;;;;18.80;48.74;99443.88;6900713;28;20212;-79
2021/10/27 16:08:06;;;;;;;7.30;3.77;;;;;;;18.15;50.69;99442.41;6887730;28;20206;-79
2021/10/27 16:11:28;;;;;;;5.10;3.97;;;;;;;18.20;50.72;99438.97;6884580;28;20243;-79
2021/10/27 16:14:49;;;;;;;9.23;4.07;;;;;;;17.84;51.69;99448.22;6886874;28;20201;-79
2021/10/27 16:18:13;;;;;;;8.40;3.90;;;;;;;17.66;52.03;99431.13;6880400;28;20207;-79
2021/10/27 16:21:36;;;;;;;4.20;3.60;;;;;;;17.96;51.31;99448.22;6875922;28;20226;-79
2021/10/27 16:24:58;;;;;;;8.30;4.27;;;;;;;17.78;51.72;99457.34;6877145;28;20210;-79
2021/10/27 16:28:20;;;;;;;5.77;3.63;;;;;;;17.65;52.47;99463.03;6873627;28;20214;-79
2021/10/27 16:31:42;;;;;;;11.93;4.17;;;;;;;17.57;52.70;99466.06;6891207;28;20230;-79
2021/10/27 16:35:06;;;;;;;6.00;4.17;;;;;;;17.51;52.60;99447.94;6881984;28;20202;-79
2021/10/27 16:38:28;;;;;;;7.33;3.83;;;;;;;16.89;55.31;99469.34;6875420;28;20234;-79
2021/10/27 16:41:50;;;;;;;4.70;3.90;;;;;;;16.23;56.71;99430.34;6864310;28;20299;-79
2021/10/27 16:45:13;;;;;;;6.43;3.70;;;;;;;16.74;55.00;99471.66;6866679;28;20215;-79
2021/10/27 16:48:34;;;;;;;6.53;3.70;;;;;;;16.78;55.08;99470.97;6891734;28;20217;-79
2021/10/27 16:51:57;;;;;;;4.50;4.00;;;;;;;16.61;55.17;99463.63;6890609;28;20261;-81
2021/10/27 16:55:19;;;;;;;6.83;4.23;;;;;;;16.78;54.69;99481.84;6896650;28;20204;-80
2021/10/27 16:58:41;;;;;;;5.57;4.27;;;;;;;15.96;56.60;99484.16;6900021;28;20748;-80
2021/10/27 17:02:03;;;;;;;4.80;3.90;;;;;;;16.06;56.69;99487.22;6893983;28;20225;-80
2021/10/27 17:05:25;;;;;;;5.33;4.17;;;;;;;16.03;56.29;99490.38;6893562;28;20213;-82
2021/10/27 17:08:48;;;;;;;5.17;4.03;;;;;;;15.81;57.36;99491.81;6893550;28;20238;-81
2021/10/27 17:12:11;;;;;;;4.90;4.00;;;;;;;16.00;56.66;99490.84;6892419;28;20228;-80
2021/10/27 17:15:34;;;;;;;4.63;3.87;;;;;;;15.15;58.88;99498.75;6882366;28;20201;-80
2021/10/27 17:18:55;;;;;;;6.60;4.00;;;;;;;15.13;59.18;99500.00;6880778;28;20236;-81
2021/10/27 17:22:22;;;;;;;4.03;3.57;;;;;;;15.40;58.14;99480.63;6881671;28;20720;-81
2021/10/27 17:25:45;;;;;;;5.43;4.40;;;;;;;15.19;58.42;99474.69;6886392;28;20699;-81
2021/10/27 17:29:07;;;;;;;7.67;5.17;;;;;;;15.47;57.75;99491.47;6889294;28;20855;-81
2021/10/27 17:32:28;;;;;;;12.63;7.00;;;;;;;14.77;59.04;99470.75;6891688;28;20232;-81
2021/10/27 17:35:51;;;;;;;5.70;4.80;;;;;;;14.75;59.09;99453.81;6883572;28;20208;-81
2021/10/27 17:39:13;;;;;;;5.17;4.47;;;;;;;15.42;57.87;99496.72;6881380;28;20203;-81
2021/10/27 17:42:36;;;;;;;7.93;5.63;;;;;;;15.65;57.15;99500.53;6878440;28;20224;-82
2021/10/27 17:46:00;;;;;;;10.50;7.80;;;;;;;15.62;56.82;99500.97;6873121;28;20201;-81
2021/10/27 17:49:32;;;;;;;11.90;7.80;;;;;;;15.66;56.56;99501.38;6893947;28;20204;-81
2021/10/27 18:00:18;;;;;;;10.20;6.23;;;;;;;15.63;56.12;99507.25;6883039;28;20652;-81
2021/10/27 18:03:43;;;;;;;6.23;5.63;;;;;;;15.17;56.75;99499.34;6879274;28;20205;-81
2021/10/27 18:07:04;;;;;;;5.73;4.90;;;;;;;15.45;55.92;99490.88;6885088;28;20193;-84
2021/10/27 18:10:26;;;;;;;7.17;6.50;;;;;;;15.28;56.17;99503.28;6881001;28;20232;-81
2021/10/27 18:13:50;;;;;;;7.53;6.30;;;;;;;15.16;56.41;99505.81;6884289;28;20204;-80
2021/10/27 18:17:17;;;;;;;6.73;5.73;;;;;;;14.85;57.53;99505.78;6885072;28;20245;-80
2021/10/27 18:20:42;;;;;;;7.13;5.33;;;;;;;14.97;56.66;99495.91;6884952;28;20218;-80
2021/10/27 18:24:12;;;;;;;9.17;6.07;;;;;;;14.43;57.26;99502.78;6883830;28;20196;-81
2021/10/27 18:38:38;;;;;;;7.23;6.13;;;;;;;14.08;59.18;99482.38;6897716;28;20193;-80
2021/10/27 18:42:05;;;;;;;9.77;6.10;;;;;;;14.40;58.43;99495.91;6889747;28;20235;-80
2021/10/27 18:45:27;;;;;;;8.60;6.33;;;;;;;13.74;58.65;99431.97;6895922;28;20189;-80
2021/10/27 18:48:49;;;;;;;7.80;6.10;;;;;;;14.18;58.51;99497.19;6895635;28;20197;-80
2021/10/27 18:52:19;;;;;;;7.73;5.90;;;;;;;14.01;58.46;99495.97;6892997;28;20270;-80
2021/10/27 18:55:46;;;;;;;6.57;5.83;;;;;;;14.20;58.37;99500.56;6894604;28;20212;-80
2021/10/27 18:59:12;;;;;;;6.53;5.73;;;;;;;13.79;59.04;99505.34;6893606;28;20211;-80
2021/10/27 19:02:42;;;;;;;7.00;5.40;;;;;;;13.97;58.29;99488.44;6894724;28;20541;-80
2021/10/27 19:13:40;;;;;;;8.03;6.27;;;;;;;13.74;57.84;99478.03;6888750;28;20228;-81
2021/10/27 19:17:04;;;;;;;10.97;7.63;;;;;;;13.18;58.32;99478.59;6892755;28;20204;-80
2021/10/27 19:20:26;;;;;;;8.23;7.10;;;;;;;13.23;59.36;99495.91;6902490;28;20230;-81
2021/10/27 19:23:48;;;;;;;8.27;6.93;;;;;;;12.85;59.93;99483.91;6917979;28;20204;-81
2021/10/27 19:27:14;;;;;;;8.87;7.57;;;;;;;12.62;61.01;99493.41;6919541;28;20253;-81
2021/10/27 19:30:50;;;;;;;8.90;6.97;;;;;;;12.55;61.17;99492.50;6918974;28;20318;-81
2021/10/27 19:34:37;;;;;;;13.10;7.93;;;;;;;12.59;61.32;99488.38;6917967;28;20222;-81
2021/10/27 20:51:12;;;;;;;21.43;10.53;;;;;;;12.27;59.62;99443.09;6895773;28;20232;-81
2021/10/27 20:54:34;;;;;;;14.70;10.40;;;;;;;12.49;59.58;99471.66;6895857;28;20574;-80
2021/10/27 20:58:02;;;;;;;15.00;11.13;;;;;;;12.29;60.35;99468.91;6895355;28;20216;-81
